sensor_id;sensor_type;location;lat;lon;timestamp;pressure;altitude;pressure_sealevel;temperature;humidity
15066;BME280;7632;64.944;20.038;2024-01-27T00:01:27;98158.66;;;-2.25;100.00
15066;BME280;7632;64.944;20.038;2024-01-27T00:03:53;98160.16;;;-2.33;100.00
15066;BME280;7632;64.944;20.038;2024-01-27T00:06:20;98154.69;;;-2.16;100.00
15066;BME280;7632;64.944;20.038;2024-01-27T00:08:47;98169.34;;;-2.35;100.00
15066;BME280;7632;64.944;20.038;2024-01-27T00:11:15;98170.16;;;-2.36;100.00
15066;BME280;7632;64.944;20.038;2024-01-27T00:13:42;98164.41;;;-2.31;100.00
15066;BME280;7632;64.944;20.038;2024-01-27T00:16:09;98159.59;;;-2.22;100.00
15066;BME280;7632;64.944;20.038;2024-01-27T00:18:36;98163.75;;;-2.22;100.00
15066;BME280;7632;64.944;20.038;2024-01-27T00:21:04;98167.94;;;-2.23;100.00
15066;BME280;7632;64.944;20.038;2024-01-27T00:23:31;98160.41;;;-2.21;100.00
15066;BME280;7632;64.944;20.038;2024-01-27T00:25:59;98165.31;;;-2.27;100.00
15066;BME280;7632;64.944;20.038;2024-01-27T00:28:28;98172.31;;;-2.14;100.00
15066;BME280;7632;64.944;20.038;2024-01-27T00:30:54;98171.22;;;-2.25;100.00
15066;BME280;7632;64.944;20.038;2024-01-27T00:33:21;98173.56;;;-2.34;100.00
15066;BME280;7632;64.944;20.038;2024-01-27T00:35:48;98181.41;;;-2.19;100.00
15066;BME280;7632;64.944;20.038;2024-01-27T00:38:15;98174.63;;;-2.23;100.00
15066;BME280;7632;64.944;20.038;2024-01-27T00:40:41;98170.59;;;-2.15;100.00
15066;BME280;7632;64.944;20.038;2024-01-27T00:43:08;98165.81;;;-2.43;100.00
15066;BME280;7632;64.944;20.038;2024-01-27T00:45:37;98176.38;;;-2.19;100.00
15066;BME280;7632;64.944;20.038;2024-01-27T00:48:05;98179.72;;;-2.20;100.00
15066;BME280;7632;64.944;20.038;2024-01-27T00:50:31;98171.94;;;-2.32;100.00
15066;BME280;7632;64.944;20.038;2024-01-27T00:52:58;98182.13;;;-2.26;100.00
15066;BME280;7632;64.944;20.038;2024-01-27T00:55:25;98183.00;;;-2.24;100.00
15066;BME280;7632;64.944;20.038;2024-01-27T00:57:52;98186.31;;;-2.25;100.00
15066;BME280;7632;64.944;20.038;2024-01-27T01:00:19;98194.56;;;-2.32;100.00
15066;BME280;7632;64.944;20.038;2024-01-27T01:02:47;98199.47;;;-2.38;100.00
15066;BME280;7632;64.944;20.038;2024-01-27T01:05:15;98197.06;;;-2.32;100.00
15066;BME280;7632;64.944;20.038;2024-01-27T01:07:42;98206.28;;;-2.33;100.00
15066;BME280;7632;64.944;20.038;2024-01-27T06:00:40;98509.41;;;-7.66;100.00
15066;BME280;7632;64.944;20.038;2024-01-27T06:03:08;98510.84;;;-7.71;100.00
15066;BME280;7632;64.944;20.038;2024-01-27T06:05:35;98493.06;;;-7.97;100.00
15066;BME280;7632;64.944;20.038;2024-01-27T06:08:02;98516.47;;;-8.11;100.00
15066;BME280;7632;64.944;20.038;2024-01-27T06:10:29;98524.06;;;-8.08;100.00
15066;BME280;7632;64.944;20.038;2024-01-27T06:12:57;98533.91;;;-8.11;100.00
15066;BME280;7632;64.944;20.038;2024-01-27T06:15:24;98515.53;;;-8.13;100.00
15066;BME280;7632;64.944;20.038;2024-01-27T06:17:52;98540.28;;;-8.16;100.00
15066;BME280;7632;64.944;20.038;2024-01-27T06:20:18;98536.56;;;-8.24;100.00
15066;BME280;7632;64.944;20.038;2024-01-27T06:22:45;98522.03;;;-8.98;100.00
15066;BME280;7632;64.944;20.038;2024-01-27T06:25:12;98536.34;;;-9.26;100.00
15066;BME280;7632;64.944;20.038;2024-01-27T06:27:39;98551.06;;;-9.29;100.00
15066;BME280;7632;64.944;20.038;2024-01-27T06:30:08;98565.22;;;-9.59;100.00
15066;BME280;7632;64.944;20.038;2024-01-27T06:32:35;98562.66;;;-9.75;100.00
15066;BME280;7632;64.944;20.038;2024-01-27T06:35:03;98545.00;;;-9.65;100.00
15066;BME280;7632;64.944;20.038;2024-01-27T06:37:30;98547.34;;;-9.52;100.00
15066;BME280;7632;64.944;20.038;2024-01-27T06:39:57;98545.44;;;-9.41;100.00
15066;BME280;7632;64.944;20.038;2024-01-27T06:42:24;98539.25;;;-9.33;100.00
15066;BME280;7632;64.944;20.038;2024-01-27T06:44:51;98548.16;;;-9.22;100.00
15066;BME280;7632;64.944;20.038;2024-01-27T06:47:17;98541.78;;;-9.17;100.00
15066;BME280;7632;64.944;20.038;2024-01-27T06:49:44;98532.13;;;-9.27;100.00
15066;BME280;7632;64.944;20.038;2024-01-27T06:52:12;98549.22;;;-9.17;100.00
15066;BME280;7632;64.944;20.038;2024-01-27T06:54:39;98561.47;;;-9.36;100.00
15066;BME280;7632;64.944;20.038;2024-01-27T06:57:17;98543.53;;;-9.31;100.00
15066;BME280;7632;64.944;20.038;2024-01-27T06:59:44;98556.19;;;-9.42;100.00
15066;BME280;7632;64.944;20.038;2024-01-27T07:02:11;98558.75;;;-9.55;100.00
15066;BME280;7632;64.944;20.038;2024-01-27T07:04:39;98556.13;;;-9.58;100.00
15066;BME280;7632;64.944;20.038;2024-01-27T07:07:06;98556.78;;;-9.46;100.00
15066;BME280;7632;64.944;20.038;2024-01-27T07:09:34;98548.34;;;-9.34;100.00
15066;BME280;7632;64.944;20.038;2024-01-27T07:12:01;98535.25;;;-9.15;100.00
15066;BME280;7632;64.944;20.038;2024-01-27T07:14:28;98537.44;;;-8.89;100.00
15066;BME280;7632;64.944;20.038;2024-01-27T07:16:54;98531.06;;;-8.68;100.00
15066;BME280;7632;64.944;20.038;2024-01-27T07:19:21;98521.09;;;-8.68;100.00
15066;BME280;7632;64.944;20.038;2024-01-27T07:21:48;98518.28;;;-8.42;100.00
15066;BME280;7632;64.944;20.038;2024-01-27T07:24:15;98520.75;;;-8.42;100.00
15066;BME280;7632;64.944;20.038;2024-01-27T07:26:43;98546.47;;;-8.75;100.00
15066;BME280;7632;64.944;20.038;2024-01-27T07:29:09;98550.44;;;-8.79;100.00
15066;BME280;7632;64.944;20.038;2024-01-27T07:31:36;98553.84;;;-8.77;100.00
15066;BME280;7632;64.944;20.038;2024-01-27T07:34:04;98558.28;;;-8.71;100.00
15066;BME280;7632;64.944;20.038;2024-01-27T07:36:31;98567.28;;;-8.73;100.00
15066;BME280;7632;64.944;20.038;2024-01-27T07:38:58;98563.88;;;-8.75;100.00
15066;BME280;7632;64.944;20.038;2024-01-27T07:41:25;98553.63;;;-8.65;100.00
15066;BME280;7632;64.944;20.038;2024-01-27T07:43:54;98557.66;;;-8.67;100.00
15066;BME280;7632;64.944;20.038;2024-01-27T07:46:20;98550.00;;;-8.54;100.00
15066;BME280;7632;64.944;20.038;2024-01-27T07:48:48;98537.13;;;-8.47;100.00
15066;BME280;7632;64.944;20.038;2024-01-27T07:51:15;98547.38;;;-8.41;100.00
15066;BME280;7632;64.944;20.038;2024-01-27T07:53:42;98533.16;;;-8.26;100.00
15066;BME280;7632;64.944;20.038;2024-01-27T07:56:08;98543.69;;;-8.14;100.00
15066;BME280;7632;64.944;20.038;2024-01-27T07:58:35;98536.91;;;-7.82;100.00
15066;BME280;7632;64.944;20.038;2024-01-27T08:01:04;98537.03;;;-7.79;100.00
15066;BME280;7632;64.944;20.038;2024-01-27T08:03:31;98546.72;;;-7.68;100.00
15066;BME280;7632;64.944;20.038;2024-01-27T08:05:57;98538.25;;;-7.71;100.00
15066;BME280;7632;64.944;20.038;2024-01-27T08:08:24;98541.53;;;-7.72;100.00
15066;BME280;7632;64.944;20.038;2024-01-27T08:10:51;98549.91;;;-8.06;100.00
15066;BME280;7632;64.944;20.038;2024-01-27T08:13:18;98521.88;;;-8.02;100.00
15066;BME280;7632;64.944;20.038;2024-01-27T08:15:44;98543.81;;;-7.95;100.00
15066;BME280;7632;64.944;20.038;2024-01-27T08:18:12;98548.16;;;-7.91;100.00
15066;BME280;7632;64.944;20.038;2024-01-27T08:20:39;98546.09;;;-7.81;100.00
15066;BME280;7632;64.944;20.038;2024-01-27T08:23:06;98524.59;;;-7.79;100.00
15066;BME280;7632;64.944;20.038;2024-01-27T08:25:33;98535.19;;;-7.48;100.00
15066;BME280;7632;64.944;20.038;2024-01-27T08:28:00;98535.19;;;-7.48;100.00
15066;BME280;7632;64.944;20.038;2024-01-27T08:30:27;98531.31;;;-7.42;100.00
15066;BME280;7632;64.944;20.038;2024-01-27T08:32:53;98542.72;;;-7.29;100.00
15066;BME280;7632;64.944;20.038;2024-01-27T08:35:22;98549.81;;;-7.19;100.00
15066;BME280;7632;64.944;20.038;2024-01-27T08:37:48;98542.31;;;-7.91;100.00
15066;BME280;7632;64.944;20.038;2024-01-27T08:40:15;98533.75;;;-7.43;100.00
15066;BME280;7632;64.944;20.038;2024-01-27T08:42:42;98547.97;;;-7.23;100.00
15066;BME280;7632;64.944;20.038;2024-01-27T08:45:09;98543.75;;;-7.24;100.00
15066;BME280;7632;64.944;20.038;2024-01-27T08:47:36;98557.97;;;-7.23;100.00
15066;BME280;7632;64.944;20.038;2024-01-27T08:50:04;98551.22;;;-7.07;100.00
15066;BME280;7632;64.944;20.038;2024-01-27T08:52:32;98564.75;;;-7.02;100.00
15066;BME280;7632;64.944;20.038;2024-01-27T08:54:59;98582.13;;;-6.85;100.00
15066;BME280;7632;64.944;20.038;2024-01-27T08:57:26;98573.66;;;-6.70;100.00
15066;BME280;7632;64.944;20.038;2024-01-27T08:59:52;98581.59;;;-6.59;100.00
15066;BME280;7632;64.944;20.038;2024-01-27T12:00:55;98527.66;;;0.20;100.00
15066;BME280;7632;64.944;20.038;2024-01-27T12:03:22;98526.75;;;0.15;100.00
15066;BME280;7632;64.944;20.038;2024-01-27T12:05:48;98520.69;;;0.06;100.00
15066;BME280;7632;64.944;20.038;2024-01-27T12:08:16;98525.75;;;0.07;100.00
15066;BME280;7632;64.944;20.038;2024-01-27T12:10:43;98532.13;;;-0.13;100.00
15066;BME280;7632;64.944;20.038;2024-01-27T12:13:10;98524.69;;;-0.06;100.00
15066;BME280;7632;64.944;20.038;2024-01-27T12:15:37;98523.06;;;-0.04;100.00
15066;BME280;7632;64.944;20.038;2024-01-27T12:18:05;98522.47;;;0.11;100.00
15066;BME280;7632;64.944;20.038;2024-01-27T12:20:33;98505.59;;;0.10;100.00
15066;BME280;7632;64.944;20.038;2024-01-27T12:23:03;98499.56;;;0.00;100.00
15066;BME280;7632;64.944;20.038;2024-01-27T12:25:30;98500.41;;;0.01;100.00
15066;BME280;7632;64.944;20.038;2024-01-27T12:27:57;98491.22;;;0.05;100.00
15066;BME280;7632;64.944;20.038;2024-01-27T12:30:27;98503.97;;;0.12;100.00
15066;BME280;7632;64.944;20.038;2024-01-27T12:32:53;98504.03;;;0.15;100.00
15066;BME280;7632;64.944;20.038;2024-01-27T12:35:23;98508.84;;;0.00;100.00
15066;BME280;7632;64.944;20.038;2024-01-27T12:37:52;98495.16;;;-0.13;100.00
15066;BME280;7632;64.944;20.038;2024-01-27T12:40:19;98491.88;;;-0.07;100.00
15066;BME280;7632;64.944;20.038;2024-01-27T12:42:46;98489.31;;;-0.10;100.00
15066;BME280;7632;64.944;20.038;2024-01-27T12:45:13;98508.72;;;-0.06;100.00
15066;BME280;7632;64.944;20.038;2024-01-27T12:47:40;98500.19;;;-0.14;100.00
15066;BME280;7632;64.944;20.038;2024-01-27T12:50:08;98513.56;;;-0.18;100.00
15066;BME280;7632;64.944;20.038;2024-01-27T12:52:36;98519.22;;;-0.30;100.00
15066;BME280;7632;64.944;20.038;2024-01-27T12:55:04;98516.84;;;-0.22;100.00
15066;BME280;7632;64.944;20.038;2024-01-27T12:57:31;98515.91;;;-0.27;100.00
15066;BME280;7632;64.944;20.038;2024-01-27T12:59:58;98510.53;;;-0.44;100.00
15066;BME280;7632;64.944;20.038;2024-01-27T13:02:25;98499.78;;;-0.34;100.00
15066;BME280;7632;64.944;20.038;2024-01-27T13:04:52;98505.69;;;-0.33;100.00
15066;BME280;7632;64.944;20.038;2024-01-27T13:07:19;98496.03;;;-0.09;100.00
15066;BME280;7632;64.944;20.038;2024-01-27T13:09:47;98483.44;;;-0.09;100.00
15066;BME280;7632;64.944;20.038;2024-01-27T13:12:14;98481.56;;;-0.19;100.00
15066;BME280;7632;64.944;20.038;2024-01-27T13:14:41;98473.31;;;-0.09;100.00
15066;BME280;7632;64.944;20.038;2024-01-27T13:17:08;98452.19;;;-0.16;100.00
15066;BME280;7632;64.944;20.038;2024-01-27T13:19:34;98444.00;;;-0.04;100.00
15066;BME280;7632;64.944;20.038;2024-01-27T13:22:01;98455.03;;;0.04;100.00
15066;BME280;7632;64.944;20.038;2024-01-27T13:24:28;98458.38;;;0.03;100.00
15066;BME280;7632;64.944;20.038;2024-01-27T13:26:57;98466.63;;;-0.07;100.00
15066;BME280;7632;64.944;20.038;2024-01-27T13:29:23;98462.38;;;-0.10;100.00
15066;BME280;7632;64.944;20.038;2024-01-27T13:31:51;98461.47;;;-0.15;100.00
15066;BME280;7632;64.944;20.038;2024-01-27T13:34:18;98455.44;;;-0.24;100.00
15066;BME280;7632;64.944;20.038;2024-01-27T13:36:45;98452.91;;;-0.24;100.00
15066;BME280;7632;64.944;20.038;2024-01-27T13:39:11;98463.25;;;-0.09;100.00
15066;BME280;7632;64.944;20.038;2024-01-27T13:41:39;98465.06;;;-0.02;100.00
15066;BME280;7632;64.944;20.038;2024-01-27T13:44:07;98477.56;;;-0.08;100.00
15066;BME280;7632;64.944;20.038;2024-01-27T13:46:34;98475.78;;;-0.14;100.00
15066;BME280;7632;64.944;20.038;2024-01-27T13:49:00;98472.34;;;-0.19;100.00
15066;BME280;7632;64.944;20.038;2024-01-27T13:51:27;98467.06;;;-0.31;100.00
15066;BME280;7632;64.944;20.038;2024-01-27T13:53:54;98469.50;;;-0.35;100.00
15066;BME280;7632;64.944;20.038;2024-01-27T13:56:21;98477.81;;;-0.42;100.00
15066;BME280;7632;64.944;20.038;2024-01-27T13:58:48;98455.94;;;-0.42;100.00
15066;BME280;7632;64.944;20.038;2024-01-27T14:01:16;98457.63;;;-0.42;100.00
15066;BME280;7632;64.944;20.038;2024-01-27T14:03:43;98449.91;;;-0.50;100.00
15066;BME280;7632;64.944;20.038;2024-01-27T14:06:10;98456.91;;;-0.34;100.00
15066;BME280;7632;64.944;20.038;2024-01-27T14:08:38;98445.34;;;-0.23;100.00
15066;BME280;7632;64.944;20.038;2024-01-27T14:11:05;98444.97;;;-0.44;100.00
15066;BME280;7632;64.944;20.038;2024-01-27T14:13:32;98439.13;;;-0.41;100.00
15066;BME280;7632;64.944;20.038;2024-01-27T14:15:59;98444.28;;;-0.35;100.00
15066;BME280;7632;64.944;20.038;2024-01-27T14:18:27;98441.84;;;-0.32;100.00
15066;BME280;7632;64.944;20.038;2024-01-27T14:20:54;98435.81;;;-0.40;100.00
15066;BME280;7632;64.944;20.038;2024-01-27T14:23:21;98440.97;;;-0.34;100.00
15066;BME280;7632;64.944;20.038;2024-01-27T14:25:48;98435.06;;;-0.35;100.00
15066;BME280;7632;64.944;20.038;2024-01-27T14:28:15;98430.03;;;-0.32;100.00
15066;BME280;7632;64.944;20.038;2024-01-27T14:30:42;98422.63;;;-0.24;100.00
15066;BME280;7632;64.944;20.038;2024-01-27T14:33:10;98411.75;;;-0.20;100.00
15066;BME280;7632;64.944;20.038;2024-01-27T14:35:38;98411.84;;;-0.14;100.00
15066;BME280;7632;64.944;20.038;2024-01-27T14:38:05;98404.75;;;-0.36;100.00
15066;BME280;7632;64.944;20.038;2024-01-27T14:40:34;98378.69;;;-0.35;100.00
15066;BME280;7632;64.944;20.038;2024-01-27T14:43:02;98375.47;;;-0.28;100.00
15066;BME280;7632;64.944;20.038;2024-01-27T14:45:33;98365.97;;;-0.44;100.00
15066;BME280;7632;64.944;20.038;2024-01-27T14:48:00;98370.06;;;-0.49;100.00
15066;BME280;7632;64.944;20.038;2024-01-27T14:50:27;98339.66;;;-0.58;100.00
15066;BME280;7632;64.944;20.038;2024-01-27T14:52:55;98358.78;;;-0.69;100.00
15066;BME280;7632;64.944;20.038;2024-01-27T14:55:22;98366.41;;;-0.66;100.00
15066;BME280;7632;64.944;20.038;2024-01-27T14:57:51;98350.44;;;-0.67;100.00
15066;BME280;7632;64.944;20.038;2024-01-27T15:00:18;98361.19;;;-0.77;100.00
15066;BME280;7632;64.944;20.038;2024-01-27T15:02:45;98375.69;;;-0.64;100.00
15066;BME280;7632;64.944;20.038;2024-01-27T15:05:12;98373.41;;;-0.50;100.00
15066;BME280;7632;64.944;20.038;2024-01-27T15:07:39;98371.59;;;-0.57;100.00
15066;BME280;7632;64.944;20.038;2024-01-27T15:10:07;98366.53;;;-0.60;100.00
15066;BME280;7632;64.944;20.038;2024-01-27T15:12:34;98371.50;;;-0.63;100.00
15066;BME280;7632;64.944;20.038;2024-01-27T15:15:02;98370.72;;;-0.61;100.00
15066;BME280;7632;64.944;20.038;2024-01-27T15:17:29;98363.16;;;-0.59;100.00
15066;BME280;7632;64.944;20.038;2024-01-27T15:19:56;98353.16;;;-0.56;100.00
15066;BME280;7632;64.944;20.038;2024-01-27T15:22:23;98332.81;;;-0.65;100.00
15066;BME280;7632;64.944;20.038;2024-01-27T15:24:50;98351.31;;;-0.63;100.00
15066;BME280;7632;64.944;20.038;2024-01-27T15:27:19;98349.66;;;-0.64;100.00
15066;BME280;7632;64.944;20.038;2024-01-27T15:29:46;98334.50;;;-0.66;100.00
15066;BME280;7632;64.944;20.038;2024-01-27T15:32:13;98335.88;;;-0.81;100.00
15066;BME280;7632;64.944;20.038;2024-01-27T15:34:42;98326.78;;;-0.73;100.00
15066;BME280;7632;64.944;20.038;2024-01-27T15:37:09;98322.63;;;-0.71;100.00
15066;BME280;7632;64.944;20.038;2024-01-27T15:39:36;98321.84;;;-0.67;100.00
15066;BME280;7632;64.944;20.038;2024-01-27T15:42:03;98290.72;;;-0.69;100.00
15066;BME280;7632;64.944;20.038;2024-01-27T15:44:31;98295.88;;;-0.63;100.00
15066;BME280;7632;64.944;20.038;2024-01-27T15:46:58;98301.88;;;-0.57;100.00
15066;BME280;7632;64.944;20.038;2024-01-27T15:49:25;98300.88;;;-0.66;100.00
15066;BME280;7632;64.944;20.038;2024-01-27T15:51:52;98315.84;;;-0.75;100.00
15066;BME280;7632;64.944;20.038;2024-01-27T15:54:19;98301.59;;;-0.73;100.00
15066;BME280;7632;64.944;20.038;2024-01-27T15:56:46;98294.88;;;-0.73;100.00
15066;BME280;7632;64.944;20.038;2024-01-27T15:59:13;98299.78;;;-0.80;100.00
15066;BME280;7632;64.944;20.038;2024-01-27T16:01:41;98293.03;;;-0.81;100.00
15066;BME280;7632;64.944;20.038;2024-01-27T16:04:08;98300.66;;;-0.78;100.00
15066;BME280;7632;64.944;20.038;2024-01-27T16:06:35;98311.53;;;-0.81;100.00
15066;BME280;7632;64.944;20.038;2024-01-27T16:09:03;98322.38;;;-0.87;100.00
15066;BME280;7632;64.944;20.038;2024-01-27T16:11:30;98311.41;;;-0.90;100.00
15066;BME280;7632;64.944;20.038;2024-01-27T16:13:57;98290.22;;;-1.00;100.00
15066;BME280;7632;64.944;20.038;2024-01-27T16:16:24;98300.38;;;-0.97;100.00
15066;BME280;7632;64.944;20.038;2024-01-27T16:18:53;98315.38;;;-1.03;100.00
15066;BME280;7632;64.944;20.038;2024-01-27T16:21:20;98312.75;;;-1.07;100.00
15066;BME280;7632;64.944;20.038;2024-01-27T16:23:47;98328.84;;;-1.01;100.00
15066;BME280;7632;64.944;20.038;2024-01-27T16:26:14;98328.88;;;-0.98;100.00
15066;BME280;7632;64.944;20.038;2024-01-27T16:28:40;98332.94;;;-1.06;100.00
15066;BME280;7632;64.944;20.038;2024-01-27T16:31:08;98331.94;;;-1.15;100.00
15066;BME280;7632;64.944;20.038;2024-01-27T16:33:34;98348.69;;;-1.16;100.00
15066;BME280;7632;64.944;20.038;2024-01-27T16:36:03;98336.81;;;-1.23;100.00
15066;BME280;7632;64.944;20.038;2024-01-27T16:38:30;98331.69;;;-1.29;100.00
15066;BME280;7632;64.944;20.038;2024-01-27T16:40:57;98319.81;;;-1.36;100.00
15066;BME280;7632;64.944;20.038;2024-01-27T16:43:23;98320.50;;;-1.43;100.00
15066;BME280;7632;64.944;20.038;2024-01-27T16:45:50;98316.53;;;-1.32;100.00
15066;BME280;7632;64.944;20.038;2024-01-27T16:48:17;98308.91;;;-1.35;100.00
15066;BME280;7632;64.944;20.038;2024-01-27T16:50:44;98313.06;;;-1.37;100.00
15066;BME280;7632;64.944;20.038;2024-01-27T16:53:12;98301.50;;;-1.26;100.00
15066;BME280;7632;64.944;20.038;2024-01-27T16:55:39;98299.81;;;-1.27;100.00
15066;BME280;7632;64.944;20.038;2024-01-27T16:58:07;98301.34;;;-1.35;100.00
15066;BME280;7632;64.944;20.038;2024-01-27T17:00:34;98296.19;;;-1.41;100.00
15066;BME280;7632;64.944;20.038;2024-01-27T17:03:00;98289.41;;;-1.43;100.00
15066;BME280;7632;64.944;20.038;2024-01-27T17:05:27;98281.16;;;-1.38;100.00
15066;BME280;7632;64.944;20.038;2024-01-27T17:07:54;98264.47;;;-1.31;100.00
15066;BME280;7632;64.944;20.038;2024-01-27T17:10:22;98269.63;;;-1.24;100.00
15066;BME280;7632;64.944;20.038;2024-01-27T17:12:49;98268.44;;;-1.44;100.00
15066;BME280;7632;64.944;20.038;2024-01-27T17:15:16;98271.19;;;-1.32;100.00
15066;BME280;7632;64.944;20.038;2024-01-27T20:38:58;98439.16;;;0.10;100.00
15066;BME280;7632;64.944;20.038;2024-01-27T20:41:25;98456.94;;;0.17;100.00
15066;BME280;7632;64.944;20.038;2024-01-27T20:43:51;98455.47;;;0.31;100.00
15066;BME280;7632;64.944;20.038;2024-01-27T20:46:18;98452.84;;;0.24;100.00
15066;BME280;7632;64.944;20.038;2024-01-27T20:48:45;98457.72;;;0.13;100.00
15066;BME280;7632;64.944;20.038;2024-01-27T20:51:12;98441.78;;;0.17;100.00
15066;BME280;7632;64.944;20.038;2024-01-27T20:53:38;98441.88;;;0.23;100.00
15066;BME280;7632;64.944;20.038;2024-01-27T20:56:07;98453.72;;;0.27;100.00
15066;BME280;7632;64.944;20.038;2024-01-27T20:58:35;98440.34;;;0.34;100.00
15066;BME280;7632;64.944;20.038;2024-01-27T21:01:03;98445.63;;;0.49;100.00
15066;BME280;7632;64.944;20.038;2024-01-27T21:03:30;98428.59;;;0.36;100.00
15066;BME280;7632;64.944;20.038;2024-01-27T21:05:57;98454.97;;;0.56;100.00
15066;BME280;7632;64.944;20.038;2024-01-27T21:08:24;98458.41;;;0.60;100.00
15066;BME280;7632;64.944;20.038;2024-01-27T21:10:51;98454.41;;;0.75;100.00
15066;BME280;7632;64.944;20.038;2024-01-27T21:13:19;98457.56;;;0.59;100.00
15066;BME280;7632;64.944;20.038;2024-01-27T21:15:46;98464.34;;;0.63;100.00
15066;BME280;7632;64.944;20.038;2024-01-27T21:18:13;98467.75;;;0.64;100.00
15066;BME280;7632;64.944;20.038;2024-01-27T21:20:40;98471.94;;;0.62;100.00
15066;BME280;7632;64.944;20.038;2024-01-27T21:23:06;98451.28;;;0.33;100.00
15066;BME280;7632;64.944;20.038;2024-01-27T21:25:33;98477.53;;;0.44;100.00
15066;BME280;7632;64.944;20.038;2024-01-27T21:28:00;98470.09;;;0.53;100.00
15066;BME280;7632;64.944;20.038;2024-01-27T21:30:28;98479.44;;;0.57;100.00
15066;BME280;7632;64.944;20.038;2024-01-27T21:32:56;98486.94;;;0.54;100.00
15066;BME280;7632;64.944;20.038;2024-01-27T21:35:23;98487.81;;;0.56;100.00
15066;BME280;7632;64.944;20.038;2024-01-27T21:37:50;98486.22;;;0.61;100.00
15066;BME280;7632;64.944;20.038;2024-01-27T21:40:17;98483.72;;;0.64;100.00
15066;BME280;7632;64.944;20.038;2024-01-27T21:42:44;98486.22;;;0.61;100.00
15066;BME280;7632;64.944;20.038;2024-01-27T21:45:11;98478.66;;;0.64;100.00
15066;BME280;7632;64.944;20.038;2024-01-27T21:47:39;98482.81;;;0.59;100.00
15066;BME280;7632;64.944;20.038;2024-01-27T21:50:07;98473.56;;;0.60;100.00
15066;BME280;7632;64.944;20.038;2024-01-27T21:52:34;98489.56;;;0.60;100.00
15066;BME280;7632;64.944;20.038;2024-01-27T21:55:01;98475.00;;;0.44;100.00
15066;BME280;7632;64.944;20.038;2024-01-27T21:57:28;98500.63;;;0.67;100.00
15066;BME280;7632;64.944;20.038;2024-01-27T21:59:54;98506.34;;;0.55;100.00
15066;BME280;7632;64.944;20.038;2024-01-27T22:02:21;98509.50;;;0.42;100.00
15066;BME280;7632;64.944;20.038;2024-01-27T22:04:49;98501.88;;;0.38;100.00
15066;BME280;7632;64.944;20.038;2024-01-27T22:07:17;98521.88;;;0.26;100.00
15066;BME280;7632;64.944;20.038;2024-01-27T22:09:44;98527.03;;;0.33;100.00
15066;BME280;7632;64.944;20.038;2024-01-27T22:12:11;98521.78;;;0.21;100.00
15066;BME280;7632;64.944;20.038;2024-01-27T22:14:38;98523.44;;;0.18;100.00
15066;BME280;7632;64.944;20.038;2024-01-27T22:17:05;98523.06;;;-0.04;100.00
15066;BME280;7632;64.944;20.038;2024-01-27T22:19:31;98527.41;;;0.05;100.00
15066;BME280;7632;64.944;20.038;2024-01-27T22:22:00;98525.09;;;0.17;100.00
15066;BME280;7632;64.944;20.038;2024-01-27T22:24:27;98532.81;;;0.26;100.00
15066;BME280;7632;64.944;20.038;2024-01-27T22:26:54;98528.63;;;0.27;100.00
15066;BME280;7632;64.944;20.038;2024-01-27T22:29:20;98529.19;;;0.12;100.00
15066;BME280;7632;64.944;20.038;2024-01-27T22:31:47;98532.72;;;0.20;100.00
15066;BME280;7632;64.944;20.038;2024-01-27T22:34:14;98523.16;;;0.04;100.00
15066;BME280;7632;64.944;20.038;2024-01-27T22:36:41;98537.41;;;-0.01;100.00
15066;BME280;7632;64.944;20.038;2024-01-27T22:39:09;98547.81;;;0.16;100.00
15066;BME280;7632;64.944;20.038;2024-01-27T22:41:37;98559.47;;;0.09;100.00
15066;BME280;7632;64.944;20.038;2024-01-27T22:44:05;98543.31;;;-0.01;100.00
15066;BME280;7632;64.944;20.038;2024-01-27T22:46:32;98570.31;;;0.05;100.00
15066;BME280;7632;64.944;20.038;2024-01-27T22:48:59;98576.88;;;-0.05;100.00
15066;BME280;7632;64.944;20.038;2024-01-27T22:51:26;98586.19;;;-0.02;100.00
15066;BME280;7632;64.944;20.038;2024-01-27T22:53:53;98582.78;;;-0.04;100.00
15066;BME280;7632;64.944;20.038;2024-01-27T22:56:21;98598.59;;;-0.14;100.00
15066;BME280;7632;64.944;20.038;2024-01-27T22:58:48;98602.06;;;-0.08;100.00
15066;BME280;7632;64.944;20.038;2024-01-27T23:01:15;98592.78;;;-0.09;100.00
15066;BME280;7632;64.944;20.038;2024-01-27T23:03:42;98607.69;;;-0.22;100.00
15066;BME280;7632;64.944;20.038;2024-01-27T23:06:09;98602.47;;;-0.30;100.00
15066;BME280;7632;64.944;20.038;2024-01-27T23:08:38;98600.91;;;-0.23;100.00
15066;BME280;7632;64.944;20.038;2024-01-27T23:11:05;98614.88;;;-0.40;100.00
15066;BME280;7632;64.944;20.038;2024-01-27T23:13:34;98606.84;;;-0.61;100.00
15066;BME280;7632;64.944;20.038;2024-01-27T23:16:01;98617.16;;;-0.52;100.00
15066;BME280;7632;64.944;20.038;2024-01-27T23:18:28;98613.63;;;-0.60;100.00
15066;BME280;7632;64.944;20.038;2024-01-27T23:20:55;98614.56;;;-0.55;100.00
15066;BME280;7632;64.944;20.038;2024-01-27T23:23:22;98616.59;;;-0.38;100.00
15066;BME280;7632;64.944;20.038;2024-01-27T23:25:48;98596.22;;;-0.48;100.00
15066;BME280;7632;64.944;20.038;2024-01-27T23:28:15;98624.84;;;-0.46;100.00
15066;BME280;7632;64.944;20.038;2024-01-27T23:30:45;98625.25;;;-0.65;100.00
15066;BME280;7632;64.944;20.038;2024-01-27T23:33:12;98629.25;;;-0.36;100.00
15066;BME280;7632;64.944;20.038;2024-01-27T23:35:38;98629.78;;;-0.09;100.00
15066;BME280;7632;64.944;20.038;2024-01-27T23:38:05;98635.47;;;0.24;100.00
15066;BME280;7632;64.944;20.038;2024-01-27T23:40:32;98617.94;;;-0.13;100.00
15066;BME280;7632;64.944;20.038;2024-01-27T23:43:00;98633.06;;;-0.13;100.00
15066;BME280;7632;64.944;20.038;2024-01-27T23:45:27;98621.22;;;-0.17;100.00
15066;BME280;7632;64.944;20.038;2024-01-27T23:47:55;98632.84;;;-0.25;100.00
15066;BME280;7632;64.944;20.038;2024-01-27T23:50:22;98623.25;;;-0.41;100.00
15066;BME280;7632;64.944;20.038;2024-01-27T23:52:49;98627.75;;;-0.28;100.00
15066;BME280;7632;64.944;20.038;2024-01-27T23:55:16;98624.00;;;-0.45;100.00
15066;BME280;7632;64.944;20.038;2024-01-27T23:57:46;98628.03;;;-0.55;100.00
